createdAt,value
2023-03-07T00:00:47.189Z,40.70
2023-03-07T00:03:15.966Z,38.95
2023-03-07T00:05:43.351Z,38.70
2023-03-07T00:08:10.838Z,39.75
2023-03-07T00:10:37.386Z,36.28
2023-03-07T00:13:04.392Z,34.50
2023-03-07T00:15:31.229Z,35.35
2023-03-07T00:17:58.378Z,34.60
2023-03-07T00:20:24.950Z,36.38
2023-03-07T00:22:51.539Z,35.75
2023-03-07T00:25:18.155Z,37.30
2023-03-07T00:27:44.723Z,36.30
2023-03-07T00:30:12.559Z,36.88
2023-03-07T00:32:39.349Z,35.63
2023-03-07T00:35:06.948Z,34.58
2023-03-07T00:37:33.585Z,37.10
2023-03-07T00:40:00.243Z,34.30
2023-03-07T00:42:26.785Z,35.83
2023-03-07T00:44:53.326Z,35.85
2023-03-07T00:47:19.940Z,35.40
2023-03-07T00:49:46.522Z,36.33
2023-03-07T00:52:13.086Z,34.67
2023-03-07T00:54:39.692Z,35.55
2023-03-07T00:57:06.261Z,35.20
2023-03-07T00:59:32.956Z,35.33
2023-03-07T01:01:59.532Z,34.65
2023-03-07T01:04:26.208Z,35.25
2023-03-07T01:06:52.924Z,36.17
2023-03-07T01:09:19.510Z,35.00
2023-03-07T01:11:46.254Z,35.53
2023-03-07T01:14:13.009Z,35.80
2023-03-07T01:16:39.706Z,35.38
2023-03-07T01:19:12.419Z,34.25
2023-03-07T01:21:41.107Z,33.22
2023-03-07T01:24:12.054Z,34.38
2023-03-07T01:26:38.662Z,33.15
2023-03-07T01:29:06.568Z,35.22
2023-03-07T01:31:33.441Z,32.45
2023-03-07T01:34:02.343Z,36.40
2023-03-07T01:36:31.521Z,33.97
2023-03-07T01:39:06.604Z,35.13
2023-03-07T01:41:38.100Z,35.50
2023-03-07T01:44:17.287Z,34.25
2023-03-07T01:46:46.891Z,34.38
2023-03-07T01:49:18.678Z,35.35
2023-03-07T01:51:51.040Z,34.05
2023-03-07T01:54:20.327Z,35.30
2023-03-07T01:56:47.814Z,33.70
2023-03-07T01:59:19.436Z,34.53
2023-03-07T02:01:46.120Z,34.95
2023-03-07T02:04:19.048Z,36.63
2023-03-07T02:06:45.693Z,34.78
2023-03-07T02:09:17.280Z,32.20
2023-03-07T02:11:45.485Z,32.63
2023-03-07T02:14:12.138Z,33.97
2023-03-07T02:16:39.426Z,33.20
2023-03-07T02:19:27.969Z,33.95
2023-03-07T02:22:11.223Z,32.38
2023-03-07T02:25:00.343Z,34.03
2023-03-07T02:27:29.156Z,33.58
2023-03-07T02:29:55.895Z,34.90
2023-03-07T02:32:22.495Z,33.75
2023-03-07T02:34:49.141Z,36.80
2023-03-07T02:37:22.300Z,36.00
2023-03-07T02:39:48.945Z,34.38
2023-03-07T02:42:23.080Z,36.60
2023-03-07T02:45:01.568Z,34.72
2023-03-07T02:47:28.205Z,36.17
2023-03-07T02:49:55.101Z,39.28
2023-03-07T02:52:22.905Z,38.10
2023-03-07T02:54:49.496Z,37.50
2023-03-07T02:57:16.512Z,37.15
2023-03-07T02:59:43.163Z,39.25
2023-03-07T03:02:09.696Z,38.17
2023-03-07T03:04:36.474Z,35.97
2023-03-07T03:07:03.127Z,36.80
2023-03-07T03:09:29.816Z,37.20
2023-03-07T03:11:56.427Z,38.03
2023-03-07T03:14:23.079Z,36.25
2023-03-07T03:16:49.709Z,36.78
2023-03-07T03:19:16.240Z,37.15
2023-03-07T03:21:43.803Z,33.08
2023-03-07T03:24:10.845Z,35.40
2023-03-07T03:26:37.938Z,37.88
2023-03-07T03:29:05.627Z,38.70
2023-03-07T03:31:33.231Z,35.05
2023-03-07T03:33:59.949Z,35.92
2023-03-07T03:36:28.379Z,37.63
2023-03-07T03:38:56.895Z,34.40
2023-03-07T03:41:24.581Z,34.28
2023-03-07T03:43:51.793Z,34.53
2023-03-07T03:46:19.661Z,35.92
2023-03-07T03:48:55.971Z,34.40
2023-03-07T03:51:23.881Z,36.00
2023-03-07T03:53:51.666Z,34.58
2023-03-07T03:56:23.427Z,35.25
2023-03-07T03:58:52.541Z,36.53
2023-03-07T04:01:21.060Z,37.95
2023-03-07T04:03:49.620Z,38.58
2023-03-07T04:06:21.935Z,37.88
2023-03-07T04:08:49.141Z,36.47
2023-03-07T04:11:16.485Z,36.15
2023-03-07T04:13:44.428Z,36.15
2023-03-07T04:16:11.625Z,34.50
2023-03-07T04:18:38.519Z,33.17
2023-03-07T04:21:06.063Z,35.90
2023-03-07T04:23:33.331Z,34.22
2023-03-07T04:26:01.804Z,33.45
2023-03-07T04:28:43.361Z,31.55
2023-03-07T04:31:12.293Z,30.75
2023-03-07T04:33:39.126Z,31.80
2023-03-07T04:36:06.027Z,35.63
2023-03-07T04:38:32.611Z,34.65
2023-03-07T04:40:59.204Z,33.95
2023-03-07T04:43:25.936Z,34.53
2023-03-07T04:45:53.223Z,36.53
2023-03-07T04:48:19.995Z,35.72
2023-03-07T04:50:50.207Z,38.13
2023-03-07T04:53:17.777Z,35.45
2023-03-07T04:55:45.768Z,37.17
2023-03-07T04:58:13.655Z,34.13
2023-03-07T05:00:41.712Z,36.33
2023-03-07T05:03:10.037Z,34.85
2023-03-07T05:05:37.735Z,35.78
2023-03-07T05:08:05.617Z,36.83
2023-03-07T05:10:33.235Z,35.60
2023-03-07T05:13:00.020Z,35.17
2023-03-07T05:15:27.011Z,36.22
2023-03-07T05:17:53.552Z,35.00
2023-03-07T05:20:20.640Z,33.72
2023-03-07T05:22:47.242Z,35.35
2023-03-07T05:25:14.216Z,34.45
2023-03-07T05:27:41.072Z,31.88
2023-03-07T05:30:08.544Z,32.58
2023-03-07T05:32:35.238Z,35.75
2023-03-07T05:35:02.073Z,37.03
2023-03-07T05:37:28.708Z,34.92
2023-03-07T05:39:55.306Z,35.70
2023-03-07T05:42:21.854Z,35.15
2023-03-07T05:44:48.436Z,35.28
2023-03-07T05:47:15.091Z,33.92
2023-03-07T05:49:41.732Z,33.15
2023-03-07T05:52:08.468Z,35.05
2023-03-07T05:54:34.996Z,33.75
2023-03-07T05:57:01.527Z,34.53
2023-03-07T05:59:28.040Z,34.83
2023-03-07T06:01:54.567Z,34.30
2023-03-07T06:04:21.112Z,35.75
2023-03-07T06:06:47.676Z,35.00
2023-03-07T06:09:14.210Z,33.42
2023-03-07T06:11:40.814Z,34.42
2023-03-07T06:14:07.426Z,36.28
2023-03-07T06:16:34.008Z,36.28
2023-03-07T06:19:00.576Z,35.03
2023-03-07T06:21:27.192Z,36.60
2023-03-07T06:23:53.746Z,34.38
2023-03-07T06:26:20.364Z,33.22
2023-03-07T06:28:46.978Z,34.58
2023-03-07T06:31:16.448Z,34.25
2023-03-07T06:33:44.277Z,31.80
2023-03-07T06:36:13.490Z,34.50
2023-03-07T06:38:40.734Z,35.75
2023-03-07T06:41:07.986Z,38.35
2023-03-07T06:43:34.802Z,34.80
2023-03-07T06:46:02.336Z,34.92
2023-03-07T06:48:29.453Z,35.20
2023-03-07T06:50:56.003Z,36.38
2023-03-07T06:53:23.257Z,36.90
2023-03-07T06:55:52.981Z,38.38
2023-03-07T06:58:19.532Z,37.47
2023-03-07T07:00:46.108Z,40.10
2023-03-07T07:03:14.559Z,42.03
2023-03-07T07:05:41.350Z,35.65
2023-03-07T07:08:08.011Z,37.83
2023-03-07T07:10:34.613Z,36.15
2023-03-07T07:13:01.245Z,38.00
2023-03-07T07:15:27.817Z,37.42
2023-03-07T07:17:54.461Z,35.30
2023-03-07T07:20:21.133Z,36.60
2023-03-07T07:22:47.716Z,34.17
2023-03-07T07:25:14.368Z,33.72
2023-03-07T07:27:40.962Z,32.75
2023-03-07T07:30:09.318Z,33.08
2023-03-07T07:32:36.025Z,32.45
2023-03-07T07:35:02.910Z,30.48
2023-03-07T07:37:29.459Z,31.40
2023-03-07T07:39:56.093Z,31.27
2023-03-07T07:42:22.653Z,29.20
2023-03-07T07:44:49.237Z,30.63
2023-03-07T07:47:15.813Z,30.45
2023-03-07T07:49:42.382Z,31.30
2023-03-07T07:52:08.977Z,32.00
2023-03-07T07:54:35.575Z,31.23
2023-03-07T07:57:02.124Z,30.88
2023-03-07T07:59:28.804Z,28.33
2023-03-07T08:01:55.481Z,29.35
2023-03-07T08:04:22.235Z,28.88
2023-03-07T08:06:48.800Z,28.15
2023-03-07T08:09:15.449Z,29.23
2023-03-07T08:11:42.788Z,30.77
2023-03-07T08:14:09.858Z,30.38
2023-03-07T08:16:36.738Z,28.88
2023-03-07T08:19:03.491Z,28.15
2023-03-07T08:21:30.944Z,30.27
2023-03-07T08:23:57.575Z,28.35
2023-03-07T08:26:24.551Z,26.83
2023-03-07T08:28:51.198Z,28.17
2023-03-07T08:31:20.236Z,28.80
2023-03-07T08:33:47.864Z,26.48
2023-03-07T08:36:14.905Z,28.08
2023-03-07T08:38:42.356Z,26.30
2023-03-07T08:41:09.891Z,24.23
2023-03-07T08:43:37.884Z,26.13
2023-03-07T08:46:05.026Z,25.75
2023-03-07T08:48:31.816Z,28.27
2023-03-07T08:51:05.174Z,29.85
2023-03-07T08:53:31.958Z,26.45
2023-03-07T08:55:58.567Z,27.35
2023-03-07T08:58:25.301Z,27.90
2023-03-07T09:00:53.510Z,27.17
2023-03-07T09:03:20.092Z,29.27
2023-03-07T09:05:46.762Z,26.70
2023-03-07T09:08:13.616Z,28.83
2023-03-07T09:10:40.266Z,28.65
2023-03-07T09:13:08.339Z,31.73
2023-03-07T09:15:34.950Z,28.05
2023-03-07T09:18:01.565Z,26.65
2023-03-07T09:20:28.136Z,25.58
2023-03-07T09:22:54.715Z,26.55
2023-03-07T09:25:21.352Z,23.23
2023-03-07T09:27:47.975Z,23.85
2023-03-07T09:30:15.829Z,23.33
2023-03-07T09:32:42.900Z,25.35
2023-03-07T09:35:10.500Z,22.92
2023-03-07T09:37:37.316Z,22.67
2023-03-07T09:40:07.669Z,23.73
2023-03-07T09:42:53.021Z,23.15
2023-03-07T09:45:28.892Z,22.13
2023-03-07T09:48:23.280Z,21.92
2023-03-07T09:50:56.680Z,21.67
2023-03-07T09:53:34.857Z,21.88
2023-03-07T09:56:05.549Z,22.42
2023-03-07T09:58:33.187Z,22.98
2023-03-07T10:01:01.700Z,23.67
2023-03-07T10:03:43.486Z,21.33
2023-03-07T10:06:25.259Z,22.25
2023-03-07T10:08:53.829Z,23.75
2023-03-07T10:11:46.333Z,23.17
2023-03-07T10:14:32.960Z,25.05
2023-03-07T10:17:25.355Z,22.85
2023-03-07T10:20:00.245Z,21.48
2023-03-07T10:22:42.982Z,22.05
2023-03-07T10:25:38.862Z,20.58
2023-03-07T10:28:26.704Z,23.17
2023-03-07T10:31:16.685Z,22.95
2023-03-07T10:33:47.386Z,22.55
2023-03-07T10:36:19.780Z,23.50
2023-03-07T10:38:58.170Z,21.50
2023-03-07T10:41:24.860Z,23.98
2023-03-07T10:43:53.924Z,24.83
2023-03-07T10:46:26.349Z,25.17
2023-03-07T10:49:09.813Z,27.15
2023-03-07T10:51:56.157Z,27.42
2023-03-07T10:54:30.108Z,28.27
2023-03-07T10:57:10.246Z,28.20
2023-03-07T10:59:40.059Z,28.63
2023-03-07T11:02:35.963Z,29.23
2023-03-07T11:05:23.843Z,29.67
2023-03-07T11:07:50.512Z,29.42
2023-03-07T11:10:35.764Z,30.05
2023-03-07T11:13:22.993Z,30.63
2023-03-07T11:16:00.124Z,30.65
2023-03-07T11:18:40.539Z,32.50
2023-03-07T11:21:29.739Z,31.70
2023-03-07T11:24:02.052Z,31.35
2023-03-07T11:26:38.286Z,29.52
2023-03-07T11:29:14.049Z,28.40
2023-03-07T11:32:05.905Z,27.10
2023-03-07T11:34:41.622Z,25.27
2023-03-07T11:37:33.141Z,25.65
2023-03-07T11:40:19.611Z,24.77
2023-03-07T11:43:04.698Z,24.73
2023-03-07T11:45:50.916Z,23.98
2023-03-07T11:48:59.200Z,25.15
2023-03-07T11:51:37.537Z,26.65
2023-03-07T11:54:31.628Z,26.17
2023-03-07T11:57:21.508Z,25.15
2023-03-07T12:00:17.968Z,26.42
2023-03-07T12:03:06.216Z,26.92
2023-03-07T12:05:41.098Z,27.38
2023-03-07T12:08:24.549Z,27.60
2023-03-07T12:10:59.880Z,28.05
2023-03-07T12:13:59.696Z,26.55
2023-03-07T12:16:38.085Z,28.55
2023-03-07T12:19:24.252Z,27.60
2023-03-07T12:22:21.214Z,26.90
2023-03-07T12:24:50.956Z,26.40
2023-03-07T12:27:32.754Z,26.48
2023-03-07T12:30:16.872Z,26.23
2023-03-07T12:32:44.062Z,25.83
2023-03-07T12:35:22.993Z,24.40
2023-03-07T12:38:04.228Z,23.80
2023-03-07T12:40:52.120Z,24.35
2023-03-07T12:43:27.666Z,23.13
2023-03-07T12:46:03.479Z,23.40
2023-03-07T12:48:51.998Z,22.45
2023-03-07T12:51:42.423Z,22.92
2023-03-07T12:54:18.800Z,23.27
2023-03-07T12:57:11.444Z,21.73
2023-03-07T12:59:41.302Z,21.60
2023-03-07T13:02:28.403Z,23.63
2023-03-07T13:04:55.473Z,24.25
2023-03-07T13:07:26.627Z,22.92
2023-03-07T13:09:55.945Z,23.85
2023-03-07T13:12:29.619Z,24.63
2023-03-07T13:15:01.682Z,24.25
2023-03-07T13:17:31.438Z,23.63
2023-03-07T13:20:04.928Z,23.58
2023-03-07T13:22:31.455Z,24.58
2023-03-07T13:25:25.952Z,25.23
2023-03-07T13:28:04.569Z,25.60
2023-03-07T13:30:33.046Z,25.98
2023-03-07T13:33:06.684Z,25.63
2023-03-07T13:35:39.311Z,25.13
2023-03-07T13:38:23.827Z,24.60
2023-03-07T13:40:55.651Z,24.85
2023-03-07T13:43:27.817Z,23.80
2023-03-07T13:45:57.366Z,24.95
2023-03-07T13:48:32.673Z,23.88
2023-03-07T13:50:59.194Z,26.48
2023-03-07T13:53:31.635Z,26.63
2023-03-07T13:56:16.451Z,24.38
2023-03-07T13:58:48.938Z,27.20
2023-03-07T14:01:21.767Z,27.27
2023-03-07T14:03:56.129Z,28.15
2023-03-07T14:06:48.794Z,27.20
2023-03-07T14:09:20.224Z,27.60
2023-03-07T14:12:24.422Z,26.20
2023-03-07T14:15:01.426Z,26.02
2023-03-07T14:17:56.971Z,25.88
2023-03-07T14:20:36.161Z,29.13
2023-03-07T14:23:26.131Z,31.55
2023-03-07T14:26:07.750Z,29.38
2023-03-07T14:28:34.326Z,28.77
2023-03-07T14:31:05.521Z,27.52
2023-03-07T14:33:39.757Z,28.80
2023-03-07T14:36:19.715Z,28.58
2023-03-07T14:38:48.032Z,30.27
2023-03-07T14:41:47.800Z,30.65
2023-03-07T14:44:14.299Z,27.88
2023-03-07T14:47:08.546Z,29.45
2023-03-07T14:49:53.562Z,29.73
2023-03-07T14:52:30.847Z,30.20
2023-03-07T14:55:03.909Z,29.63
2023-03-07T14:57:36.505Z,29.23
2023-03-07T15:00:06.067Z,31.20
2023-03-07T15:02:32.662Z,30.40
2023-03-07T15:04:59.287Z,29.48
2023-03-07T15:07:25.814Z,31.90
2023-03-07T15:09:52.405Z,31.20
2023-03-07T15:12:25.447Z,31.38
2023-03-07T15:14:57.133Z,34.17
2023-03-07T15:17:27.015Z,34.47
2023-03-07T15:19:55.796Z,36.03
2023-03-07T15:22:29.185Z,36.67
2023-03-07T15:24:56.162Z,36.08
2023-03-07T15:27:31.532Z,38.20
2023-03-07T15:30:00.951Z,37.97
2023-03-07T15:32:35.510Z,39.28
2023-03-07T15:35:06.244Z,37.85
2023-03-07T15:37:33.627Z,40.20
2023-03-07T15:40:28.500Z,38.10
2023-03-07T15:43:14.354Z,38.03
2023-03-07T15:45:43.426Z,38.53
2023-03-07T15:48:14.663Z,39.75
2023-03-07T15:50:41.512Z,36.63
2023-03-07T15:53:17.514Z,39.03
2023-03-07T15:55:54.397Z,38.65
2023-03-07T15:58:22.867Z,39.20
2023-03-07T16:00:49.556Z,39.63
2023-03-07T16:03:27.743Z,37.03
2023-03-07T16:05:55.879Z,33.78
2023-03-07T16:08:23.140Z,34.45
2023-03-07T16:10:56.381Z,34.50
2023-03-07T16:13:28.699Z,33.08
2023-03-07T16:16:14.466Z,34.85
2023-03-07T16:18:42.669Z,33.83
2023-03-07T16:21:13.941Z,33.42
2023-03-07T16:23:40.760Z,33.42
2023-03-07T16:26:07.756Z,35.03
2023-03-07T16:28:34.874Z,35.13
2023-03-07T16:31:02.425Z,35.30
2023-03-07T16:33:29.091Z,36.92
2023-03-07T16:35:55.757Z,34.38
2023-03-07T16:38:22.349Z,33.78
2023-03-07T16:40:48.980Z,33.85
2023-03-07T16:43:24.792Z,34.45
2023-03-07T16:45:51.547Z,34.90
2023-03-07T16:48:18.205Z,34.95
2023-03-07T16:50:44.804Z,35.95
2023-03-07T16:53:11.380Z,34.47
2023-03-07T16:55:38.756Z,35.20
2023-03-07T16:58:06.440Z,34.08
2023-03-07T17:00:33.687Z,35.58
2023-03-07T17:03:03.178Z,35.03
2023-03-07T17:05:30.588Z,34.22
2023-03-07T17:07:58.864Z,33.40
2023-03-07T17:10:26.937Z,34.20
2023-03-07T17:12:56.181Z,34.60
2023-03-07T17:15:31.064Z,32.42
2023-03-07T17:17:59.538Z,33.78
2023-03-07T17:20:26.924Z,31.52
2023-03-07T17:22:53.920Z,30.48
2023-03-07T17:25:22.227Z,32.92
2023-03-07T17:27:52.837Z,34.65
2023-03-07T17:30:23.298Z,32.10
2023-03-07T17:32:50.385Z,31.65
2023-03-07T17:35:17.322Z,32.28
2023-03-07T17:37:45.374Z,31.65
2023-03-07T17:40:12.976Z,32.25
2023-03-07T17:42:42.009Z,31.73
2023-03-07T17:45:11.423Z,33.17
2023-03-07T17:47:39.248Z,34.25
2023-03-07T17:50:09.680Z,35.38
2023-03-07T17:52:36.405Z,36.40
2023-03-07T17:55:03.736Z,40.20
2023-03-07T17:57:30.300Z,38.63
2023-03-07T17:59:56.975Z,35.40
2023-03-07T18:02:23.734Z,38.88
2023-03-07T18:04:51.619Z,41.00
2023-03-07T18:07:19.758Z,47.97
2023-03-07T18:09:48.491Z,53.08
2023-03-07T18:12:18.193Z,54.60
2023-03-07T18:14:45.102Z,53.35
2023-03-07T18:17:11.750Z,53.60
2023-03-07T18:19:39.089Z,54.15
2023-03-07T18:22:05.960Z,51.17
2023-03-07T18:24:33.929Z,53.13
2023-03-07T18:27:01.108Z,53.33
2023-03-07T18:29:28.934Z,52.08
2023-03-07T18:31:55.894Z,51.22
2023-03-07T18:34:24.680Z,51.42
2023-03-07T18:36:53.045Z,50.47
2023-03-07T18:39:21.423Z,52.33
2023-03-07T18:41:48.628Z,52.22
2023-03-07T18:44:18.294Z,49.22
2023-03-07T18:46:45.354Z,51.03
2023-03-07T18:49:12.340Z,51.55
2023-03-07T18:51:39.470Z,51.45
2023-03-07T18:54:06.284Z,51.13
2023-03-07T18:56:33.602Z,48.65
2023-03-07T18:59:00.256Z,45.65
2023-03-07T19:01:28.196Z,47.25
2023-03-07T19:03:57.079Z,51.88
2023-03-07T19:06:30.734Z,54.55
2023-03-07T19:08:58.166Z,51.63
2023-03-07T19:11:24.732Z,56.75
2023-03-07T19:13:51.469Z,56.50
2023-03-07T19:16:23.800Z,57.05
2023-03-07T19:18:51.409Z,59.13
2023-03-07T19:21:26.037Z,50.67
2023-03-07T19:23:54.117Z,54.50
2023-03-07T19:26:21.632Z,54.30
2023-03-07T19:28:50.376Z,50.95
2023-03-07T19:31:19.707Z,49.58
2023-03-07T19:33:47.107Z,49.65
2023-03-07T19:36:22.252Z,50.17
2023-03-07T19:38:50.226Z,48.65
2023-03-07T19:41:19.852Z,49.50
2023-03-07T19:43:46.632Z,49.47
2023-03-07T19:46:18.793Z,48.17
2023-03-07T19:48:45.546Z,46.40
2023-03-07T19:51:21.232Z,47.42
2023-03-07T19:53:48.763Z,47.95
2023-03-07T19:56:35.600Z,46.30
2023-03-07T19:59:02.465Z,45.95
2023-03-07T20:01:29.687Z,47.95
2023-03-07T20:03:57.059Z,45.72
2023-03-07T20:06:26.810Z,46.85
2023-03-07T20:08:54.781Z,46.88
2023-03-07T20:11:26.918Z,45.08
2023-03-07T20:13:55.288Z,42.63
2023-03-07T20:16:22.233Z,43.35
2023-03-07T20:18:53.456Z,41.38
2023-03-07T20:21:21.590Z,42.60
2023-03-07T20:23:48.588Z,41.55
2023-03-07T20:26:16.958Z,40.72
2023-03-07T20:28:43.988Z,38.85
2023-03-07T20:31:11.181Z,40.50
2023-03-07T20:33:39.772Z,39.38
2023-03-07T20:36:09.817Z,40.92
2023-03-07T20:38:37.606Z,42.25
2023-03-07T20:41:11.992Z,43.10
2023-03-07T20:43:38.598Z,45.10
2023-03-07T20:46:12.814Z,44.75
2023-03-07T20:48:40.829Z,43.75
2023-03-07T20:51:18.841Z,42.30
2023-03-07T20:53:59.723Z,41.20
2023-03-07T20:56:28.648Z,40.95
2023-03-07T20:58:56.406Z,43.22
2023-03-07T21:01:25.515Z,44.42
2023-03-07T21:03:53.878Z,43.95
2023-03-07T21:06:20.877Z,43.13
2023-03-07T21:08:47.732Z,42.08
2023-03-07T21:11:18.038Z,42.67
2023-03-07T21:13:46.418Z,42.28
2023-03-07T21:16:16.391Z,42.03
2023-03-07T21:18:43.006Z,39.75
2023-03-07T21:21:15.606Z,40.28
2023-03-07T21:23:42.793Z,41.00
2023-03-07T21:26:14.647Z,42.17
2023-03-07T21:28:41.257Z,42.78
2023-03-07T21:31:11.873Z,45.63
2023-03-07T21:33:39.196Z,43.40
2023-03-07T21:36:06.615Z,44.35
2023-03-07T21:38:34.161Z,43.88
2023-03-07T21:41:01.159Z,44.13
2023-03-07T21:43:28.020Z,41.35
2023-03-07T21:45:54.769Z,41.97
2023-03-07T21:48:21.959Z,40.95
2023-03-07T21:50:51.643Z,43.35
2023-03-07T21:53:19.204Z,43.25
2023-03-07T21:55:52.733Z,43.92
2023-03-07T21:58:20.702Z,41.65
2023-03-07T22:00:47.477Z,39.83
2023-03-07T22:03:14.697Z,38.83
2023-03-07T22:05:41.817Z,38.83
2023-03-07T22:08:08.427Z,38.78
2023-03-07T22:10:35.041Z,38.58
2023-03-07T22:13:01.688Z,39.63
2023-03-07T22:15:28.558Z,39.22
2023-03-07T22:17:55.388Z,39.75
2023-03-07T22:20:22.442Z,42.35
2023-03-07T22:22:48.959Z,40.20
2023-03-07T22:25:15.750Z,39.35
2023-03-07T22:27:43.528Z,43.85
2023-03-07T22:30:10.762Z,41.92
2023-03-07T22:32:37.554Z,41.65
2023-03-07T22:35:04.417Z,42.45
2023-03-07T22:37:30.942Z,42.67
2023-03-07T22:39:57.521Z,41.53
2023-03-07T22:42:24.089Z,41.58
2023-03-07T22:44:50.649Z,43.72
2023-03-07T22:47:17.276Z,40.83
2023-03-07T22:49:43.828Z,41.67
2023-03-07T22:52:10.864Z,44.75
2023-03-07T22:54:39.355Z,46.33
2023-03-07T22:57:05.940Z,45.50
2023-03-07T22:59:32.905Z,44.40
2023-03-07T23:01:59.464Z,44.70
2023-03-07T23:04:27.178Z,47.25
2023-03-07T23:06:53.792Z,44.03
2023-03-07T23:09:20.395Z,44.22
2023-03-07T23:11:48.238Z,45.55
2023-03-07T23:14:15.590Z,44.00
2023-03-07T23:16:42.729Z,43.53
2023-03-07T23:19:09.339Z,43.92
2023-03-07T23:21:36.281Z,43.90
2023-03-07T23:24:04.504Z,41.88
2023-03-07T23:26:34.534Z,42.63
2023-03-07T23:29:01.415Z,39.05
2023-03-07T23:31:33.642Z,40.17
2023-03-07T23:34:02.852Z,39.35
2023-03-07T23:36:31.119Z,40.75
2023-03-07T23:38:58.645Z,40.08
2023-03-07T23:41:26.040Z,39.40
2023-03-07T23:43:53.958Z,40.00
2023-03-07T23:46:21.661Z,37.53
2023-03-07T23:48:48.466Z,37.22
2023-03-07T23:51:15.910Z,36.13
2023-03-07T23:53:42.450Z,34.40
2023-03-07T23:56:10.825Z,33.78
2023-03-07T23:58:37.856Z,34.15
